createdAt,value
2023-03-11T07:54:32.869Z,528.00
2023-03-11T07:55:32.245Z,532.00
2023-03-11T07:56:32.207Z,528.00
2023-03-11T07:57:32.240Z,524.00
2023-03-11T07:58:32.228Z,524.00
2023-03-11T07:59:32.996Z,524.00
2023-03-11T08:00:32.194Z,520.00
2023-03-11T08:01:32.247Z,524.00
2023-03-11T08:02:32.239Z,520.00
2023-03-11T08:03:32.204Z,516.00
2023-03-11T08:04:32.125Z,528.00
2023-03-11T08:05:32.092Z,524.00
2023-03-11T08:06:32.036Z,524.00
2023-03-11T08:07:32.162Z,524.00
2023-03-11T08:08:32.220Z,520.00
2023-03-11T08:09:32.100Z,516.00
2023-03-11T08:10:32.075Z,512.00
2023-03-11T08:11:32.182Z,520.00
2023-03-11T08:12:32.071Z,508.00
2023-03-11T08:13:32.213Z,508.00
2023-03-11T08:14:32.155Z,524.00
2023-03-11T08:15:32.233Z,528.00
2023-03-11T08:16:32.228Z,512.00
2023-03-11T08:17:32.064Z,516.00
2023-03-11T08:18:32.112Z,516.00
2023-03-11T08:19:32.600Z,528.00
2023-03-11T08:20:31.988Z,532.00
2023-03-11T08:21:32.431Z,540.00
2023-03-11T08:22:32.140Z,540.00
2023-03-11T08:23:31.983Z,544.00
2023-03-11T08:24:32.023Z,548.00
2023-03-11T08:25:32.929Z,544.00
2023-03-11T08:26:32.057Z,548.00
2023-03-11T08:27:32.126Z,560.00
2023-03-11T08:28:32.035Z,548.00
2023-03-11T08:29:32.133Z,544.00
2023-03-11T08:30:31.912Z,528.00
2023-03-11T08:31:31.985Z,520.00
2023-03-11T08:32:31.910Z,532.00
2023-03-11T08:33:31.856Z,528.00
2023-03-11T08:34:31.987Z,528.00
2023-03-11T08:35:32.206Z,512.00
2023-03-11T08:36:32.027Z,512.00
2023-03-11T08:37:31.898Z,496.00
2023-03-11T08:38:31.956Z,484.00
2023-03-11T08:39:31.921Z,492.00
2023-03-11T08:40:32.757Z,500.00
2023-03-11T08:41:31.853Z,512.00
2023-03-11T08:42:31.770Z,524.00
2023-03-11T08:43:31.793Z,516.00
2023-03-11T08:44:31.900Z,512.00
2023-03-11T08:45:31.864Z,524.00
2023-03-11T08:46:31.972Z,500.00
2023-03-11T08:47:31.872Z,516.00
2023-03-11T08:48:31.981Z,512.00
2023-03-11T08:49:32.532Z,532.00
2023-03-11T08:50:34.920Z,512.00
2023-03-11T08:51:31.812Z,512.00
2023-03-11T08:52:31.609Z,520.00
2023-03-11T08:53:31.706Z,532.00
2023-03-11T08:54:31.699Z,540.00
2023-03-11T08:55:31.705Z,540.00
2023-03-11T08:56:31.713Z,548.00
2023-03-11T08:57:33.612Z,540.00
2023-03-11T08:58:31.680Z,556.00
2023-03-11T08:59:31.653Z,556.00
2023-03-11T09:00:31.613Z,572.00
2023-03-11T09:01:31.583Z,592.00
2023-03-11T09:02:31.578Z,608.00
2023-03-11T09:03:31.798Z,644.00
2023-03-11T09:04:31.611Z,680.00
2023-03-11T09:05:31.618Z,716.00
2023-03-11T09:06:31.585Z,732.00
2023-03-11T09:07:31.605Z,716.00
2023-03-11T09:08:31.585Z,720.00
2023-03-11T09:09:31.537Z,744.00
2023-03-11T09:10:32.606Z,784.00
2023-03-11T09:11:31.651Z,824.00
2023-03-11T09:12:31.661Z,812.00
2023-03-11T09:13:31.597Z,808.00
2023-03-11T09:14:32.509Z,796.00
2023-03-11T09:15:31.575Z,788.00
2023-03-11T09:16:31.604Z,772.00
2023-03-11T09:17:31.767Z,644.00
2023-03-11T09:18:31.739Z,592.00
2023-03-11T09:19:31.524Z,576.00
2023-03-11T09:20:31.493Z,564.00
2023-03-11T09:21:31.539Z,572.00
2023-03-11T09:22:31.360Z,560.00
2023-03-11T09:23:31.443Z,540.00
2023-03-11T09:24:31.807Z,536.00
2023-03-11T09:25:31.410Z,548.00
2023-03-11T09:26:31.292Z,568.00
2023-03-11T09:27:31.378Z,592.00
2023-03-11T09:28:31.979Z,584.00
2023-03-11T09:29:31.369Z,652.00
2023-03-11T09:30:31.328Z,624.00
2023-03-11T09:31:31.381Z,600.00
2023-03-11T09:32:31.349Z,580.00
2023-03-11T09:33:31.337Z,572.00
2023-03-11T09:34:31.337Z,548.00
2023-03-11T09:35:31.290Z,544.00
2023-03-11T09:36:31.267Z,540.00
2023-03-11T09:37:31.342Z,536.00
2023-03-11T09:38:31.349Z,516.00
2023-03-11T09:39:31.227Z,504.00
2023-03-11T09:40:31.294Z,504.00
2023-03-11T09:41:31.169Z,460.00
2023-03-11T09:42:31.328Z,504.00
2023-03-11T09:43:31.145Z,496.00
2023-03-11T09:44:31.207Z,508.00
2023-03-11T09:45:31.292Z,576.00
2023-03-11T09:46:31.313Z,524.00
2023-03-11T09:47:31.054Z,512.00
2023-03-11T09:48:31.245Z,508.00
2023-03-11T09:49:31.275Z,512.00
2023-03-11T09:50:31.354Z,512.00
2023-03-11T09:51:31.212Z,516.00
2023-03-11T09:52:30.982Z,612.00
2023-03-11T09:53:31.336Z,664.00
2023-03-11T09:54:31.290Z,660.00
2023-03-11T09:55:31.203Z,676.00
2023-03-11T09:56:31.216Z,728.00
2023-03-11T09:57:31.010Z,628.00
2023-03-11T09:58:31.119Z,608.00
2023-03-11T09:59:30.998Z,596.00
2023-03-11T10:00:31.452Z,612.00
2023-03-11T10:01:31.090Z,636.00
2023-03-11T10:02:31.249Z,660.00
2023-03-11T10:03:31.060Z,660.00
2023-03-11T10:04:31.130Z,660.00
2023-03-11T10:05:31.224Z,664.00
2023-03-11T10:06:31.395Z,720.00
2023-03-11T10:07:32.893Z,716.00
2023-03-11T10:08:31.054Z,716.00
2023-03-11T10:09:30.990Z,708.00
2023-03-11T10:10:31.303Z,656.00
2023-03-11T10:11:30.951Z,652.00
2023-03-11T10:12:31.865Z,668.00
2023-03-11T10:13:30.921Z,664.00
2023-03-11T10:14:31.075Z,656.00
2023-03-11T10:15:30.921Z,612.00
2023-03-11T10:16:30.878Z,632.00
2023-03-11T10:17:31.141Z,632.00
2023-03-11T10:18:30.895Z,676.00
2023-03-11T10:19:30.782Z,684.00
2023-03-11T10:20:30.920Z,688.00
2023-03-11T10:21:30.911Z,652.00
2023-03-11T10:22:31.083Z,664.00
2023-03-11T10:23:30.964Z,696.00
2023-03-11T10:24:30.913Z,712.00
2023-03-11T10:25:30.752Z,720.00
2023-03-11T10:26:30.742Z,732.00
2023-03-11T10:27:31.338Z,740.00
2023-03-11T10:28:30.890Z,728.00
2023-03-11T10:29:30.779Z,716.00
2023-03-11T10:30:31.050Z,720.00
2023-03-11T10:31:30.908Z,688.00
2023-03-11T10:32:31.358Z,688.00
2023-03-11T10:33:30.776Z,704.00
2023-03-11T10:34:30.843Z,712.00
2023-03-11T10:35:30.788Z,700.00
2023-03-11T10:36:30.604Z,712.00
2023-03-11T10:37:46.227Z,728.00
2023-03-11T10:38:30.637Z,688.00
2023-03-11T10:39:30.874Z,692.00
2023-03-11T10:40:30.629Z,660.00
2023-03-11T10:41:30.712Z,664.00
2023-03-11T10:42:30.902Z,700.00
2023-03-11T10:43:30.862Z,656.00
2023-03-11T10:44:30.629Z,696.00
2023-03-11T10:45:30.768Z,696.00
2023-03-11T10:46:30.584Z,684.00
2023-03-11T10:47:30.678Z,696.00
2023-03-11T10:48:30.549Z,696.00
2023-03-11T10:49:30.722Z,676.00
2023-03-11T10:50:30.537Z,656.00
2023-03-11T10:51:30.444Z,636.00
2023-03-11T10:52:30.503Z,608.00
2023-03-11T10:53:30.459Z,600.00
2023-03-11T10:54:30.493Z,572.00
2023-03-11T10:55:30.407Z,580.00
2023-03-11T10:56:30.588Z,576.00
2023-03-11T10:57:30.399Z,596.00
2023-03-11T10:58:30.459Z,596.00
2023-03-11T10:59:30.467Z,616.00
2023-03-11T11:00:30.390Z,636.00
2023-03-11T11:01:30.555Z,636.00
2023-03-11T11:02:30.425Z,644.00
2023-03-11T11:03:31.133Z,640.00
2023-03-11T11:04:31.662Z,616.00
2023-03-11T11:05:30.719Z,604.00
2023-03-11T11:06:30.395Z,604.00
2023-03-11T11:07:30.414Z,596.00
2023-03-11T11:08:30.386Z,604.00
2023-03-11T11:09:30.507Z,596.00
2023-03-11T11:10:30.629Z,616.00
2023-03-11T11:11:30.429Z,628.00
2023-03-11T11:12:30.361Z,656.00
2023-03-11T11:13:30.364Z,648.00
2023-03-11T11:14:30.404Z,644.00
2023-03-11T11:15:30.319Z,652.00
2023-03-11T11:16:30.351Z,648.00
2023-03-11T11:17:30.306Z,636.00
2023-03-11T11:18:30.327Z,632.00
2023-03-11T11:19:30.475Z,616.00
2023-03-11T11:20:30.272Z,600.00
2023-03-11T11:21:30.173Z,616.00
2023-03-11T11:22:30.220Z,588.00
2023-03-11T11:23:30.219Z,580.00
2023-03-11T11:24:30.368Z,556.00
2023-03-11T11:25:30.211Z,564.00
2023-03-11T11:26:30.278Z,548.00
2023-03-11T11:27:30.402Z,572.00
2023-03-11T11:28:30.166Z,576.00
2023-03-11T11:29:30.163Z,584.00
2023-03-11T11:30:30.241Z,608.00
2023-03-11T11:31:30.103Z,608.00
2023-03-11T11:32:30.239Z,624.00
2023-03-11T11:33:30.640Z,648.00
2023-03-11T11:34:30.192Z,656.00
2023-03-11T11:35:30.320Z,672.00
2023-03-11T11:36:33.794Z,672.00
2023-03-11T11:37:31.422Z,660.00
2023-03-11T11:38:30.139Z,644.00
2023-03-11T11:39:29.928Z,640.00
2023-03-11T11:40:30.050Z,636.00
2023-03-11T11:41:29.977Z,648.00
2023-03-11T11:42:30.207Z,648.00
2023-03-11T11:43:31.607Z,628.00
2023-03-11T11:44:29.924Z,636.00
2023-03-11T11:45:30.049Z,612.00
2023-03-11T11:46:29.920Z,616.00
2023-03-11T11:47:29.936Z,596.00
2023-03-11T11:48:29.966Z,596.00
2023-03-11T11:49:30.051Z,596.00
2023-03-11T11:50:30.152Z,600.00
2023-03-11T11:51:30.064Z,612.00
2023-03-11T11:52:29.902Z,616.00
2023-03-11T11:53:29.946Z,612.00
2023-03-11T11:54:29.734Z,612.00
2023-03-11T11:55:29.942Z,604.00
2023-03-11T11:56:29.999Z,596.00
2023-03-11T11:57:29.830Z,600.00
2023-03-11T11:58:29.776Z,584.00
2023-03-11T11:59:29.977Z,544.00
2023-03-11T12:00:29.897Z,564.00
2023-03-11T12:01:29.901Z,536.00
2023-03-11T12:02:29.810Z,564.00
2023-03-11T12:03:29.874Z,556.00
2023-03-11T12:04:29.713Z,552.00
2023-03-11T12:05:29.848Z,544.00
2023-03-11T12:06:30.980Z,536.00
2023-03-11T12:08:38.038Z,496.00
2023-03-11T12:09:39.076Z,520.00
2023-03-11T12:10:39.078Z,516.00
2023-03-11T12:11:41.533Z,528.00
2023-03-11T12:12:39.136Z,532.00
2023-03-11T12:13:40.142Z,512.00
2023-03-11T12:14:39.049Z,492.00
2023-03-11T12:15:39.076Z,496.00
2023-03-11T12:16:39.000Z,500.00
2023-03-11T12:17:38.989Z,520.00
2023-03-11T12:18:39.071Z,508.00
2023-03-11T12:19:38.876Z,512.00
2023-03-11T12:20:39.054Z,516.00
2023-03-11T12:21:39.012Z,496.00
2023-03-11T12:22:38.983Z,484.00
2023-03-11T12:23:39.015Z,472.00
2023-03-11T12:24:39.030Z,480.00
2023-03-11T12:25:39.001Z,488.00
2023-03-11T12:26:39.080Z,492.00
2023-03-11T12:27:39.107Z,500.00
2023-03-11T12:28:39.005Z,496.00
2023-03-11T12:29:38.938Z,500.00
2023-03-11T12:30:39.174Z,500.00
2023-03-11T12:31:39.035Z,504.00
2023-03-11T12:32:38.758Z,500.00
2023-03-11T12:33:38.799Z,508.00
2023-03-11T12:34:38.996Z,500.00
2023-03-11T12:35:38.858Z,492.00
2023-03-11T12:36:38.846Z,480.00
2023-03-11T12:37:38.947Z,496.00
2023-03-11T12:38:38.853Z,488.00
2023-03-11T12:39:38.873Z,492.00
2023-03-11T12:40:39.081Z,476.00
2023-03-11T12:41:38.848Z,468.00
2023-03-11T12:42:38.727Z,464.00
2023-03-11T12:43:38.712Z,472.00
2023-03-11T12:44:38.692Z,496.00
2023-03-11T12:45:38.745Z,468.00
2023-03-11T12:46:38.733Z,476.00
2023-03-11T12:47:38.630Z,488.00
2023-03-11T12:48:38.722Z,488.00
2023-03-11T12:49:38.730Z,500.00
2023-03-11T12:50:38.585Z,512.00
2023-03-11T12:51:38.582Z,528.00
2023-03-11T12:52:38.722Z,536.00
2023-03-11T12:53:38.520Z,532.00
2023-03-11T12:54:38.597Z,528.00
2023-03-11T12:55:38.778Z,524.00
2023-03-11T12:56:38.539Z,528.00
2023-03-11T12:57:39.399Z,528.00
2023-03-11T12:58:38.518Z,528.00
2023-03-11T12:59:38.537Z,508.00
2023-03-11T13:00:38.501Z,520.00
2023-03-11T13:01:38.548Z,520.00
2023-03-11T13:02:38.634Z,512.00
2023-03-11T13:03:38.470Z,520.00
2023-03-11T13:04:38.417Z,508.00
2023-03-11T13:05:38.435Z,500.00
2023-03-11T13:06:38.432Z,500.00
2023-03-11T13:07:38.440Z,492.00
2023-03-11T13:08:38.413Z,488.00
2023-03-11T13:09:38.709Z,484.00
2023-03-11T13:10:38.375Z,488.00
2023-03-11T13:11:38.345Z,476.00
2023-03-11T13:12:38.604Z,456.00
2023-03-11T13:13:38.384Z,448.00
2023-03-11T13:14:38.379Z,416.00
2023-03-11T13:15:38.318Z,432.00
2023-03-11T13:16:38.743Z,440.00
2023-03-11T13:17:38.403Z,472.00
2023-03-11T13:18:38.355Z,476.00
2023-03-11T13:19:38.275Z,476.00
2023-03-11T13:20:38.320Z,500.00
2023-03-11T13:21:38.353Z,476.00
2023-03-11T13:22:38.308Z,484.00
2023-03-11T13:23:38.402Z,484.00
2023-03-11T13:24:38.336Z,464.00
2023-03-11T13:25:38.289Z,440.00
2023-03-11T13:26:38.295Z,436.00
2023-03-11T13:27:38.202Z,436.00
2023-03-11T13:28:38.181Z,460.00
2023-03-11T13:29:38.224Z,484.00
2023-03-11T13:30:38.335Z,480.00
2023-03-11T13:31:38.433Z,456.00
2023-03-11T13:32:38.263Z,448.00
2023-03-11T13:33:38.234Z,448.00
2023-03-11T13:34:38.189Z,444.00
2023-03-11T13:35:38.229Z,444.00
2023-03-11T13:36:38.301Z,448.00
2023-03-11T13:37:38.194Z,452.00
2023-03-11T13:38:38.134Z,460.00
2023-03-11T13:39:37.981Z,472.00
2023-03-11T13:40:38.109Z,484.00
2023-03-11T13:41:38.087Z,476.00
2023-03-11T13:42:38.144Z,468.00
2023-03-11T13:43:38.042Z,476.00
2023-03-11T13:44:38.094Z,488.00
2023-03-11T13:45:38.192Z,484.00
2023-03-11T13:46:38.065Z,492.00
2023-03-11T13:47:38.108Z,496.00
2023-03-11T13:48:38.055Z,520.00
2023-03-11T13:49:38.074Z,508.00
2023-03-11T13:50:37.940Z,484.00
2023-03-11T13:51:38.060Z,416.00
2023-03-11T13:52:37.921Z,440.00
2023-03-11T13:53:38.049Z,428.00
2023-03-11T13:54:37.958Z,452.00
2023-03-11T13:55:37.929Z,484.00
2023-03-11T13:56:37.912Z,496.00
2023-03-11T13:57:37.988Z,540.00
2023-03-11T13:58:37.917Z,516.00
2023-03-11T13:59:37.904Z,508.00
2023-03-11T14:00:37.955Z,516.00
2023-03-11T14:01:37.893Z,528.00
2023-03-11T14:02:37.950Z,540.00
2023-03-11T14:03:37.863Z,536.00
2023-03-11T14:04:37.794Z,540.00
2023-03-11T14:05:37.876Z,540.00
2023-03-11T14:06:37.814Z,552.00
2023-03-11T14:07:37.885Z,564.00
2023-03-11T14:08:37.756Z,608.00
2023-03-11T14:09:37.767Z,628.00
2023-03-11T14:10:37.759Z,624.00
2023-03-11T14:11:37.767Z,628.00
2023-03-11T14:12:38.251Z,584.00
2023-03-11T14:13:37.847Z,608.00
2023-03-11T14:14:37.734Z,596.00
2023-03-11T14:15:37.703Z,624.00
2023-03-11T14:16:37.785Z,608.00
2023-03-11T14:17:37.744Z,604.00
2023-03-11T14:18:37.710Z,640.00
2023-03-11T14:19:37.697Z,620.00
2023-03-11T14:20:37.783Z,608.00
2023-03-11T14:21:37.605Z,624.00
2023-03-11T14:22:37.653Z,636.00
2023-03-11T14:23:37.531Z,656.00
2023-03-11T14:24:37.669Z,656.00
2023-03-11T14:25:37.632Z,644.00
2023-03-11T14:26:37.702Z,680.00
2023-03-11T14:27:37.645Z,712.00
2023-03-11T14:28:37.557Z,700.00
2023-03-11T14:29:37.716Z,716.00
2023-03-11T14:30:37.715Z,768.00
2023-03-11T14:31:37.921Z,768.00
2023-03-11T14:32:37.678Z,784.00
2023-03-11T14:33:37.662Z,780.00
2023-03-11T14:34:37.531Z,808.00
2023-03-11T14:35:39.752Z,800.00
2023-03-11T14:36:37.552Z,772.00
2023-03-11T14:37:37.581Z,748.00
2023-03-11T14:38:37.460Z,716.00
2023-03-11T14:39:37.420Z,716.00
2023-03-11T14:40:37.502Z,692.00
2023-03-11T14:41:37.514Z,700.00
2023-03-11T14:42:37.442Z,680.00
2023-03-11T14:43:37.397Z,676.00
2023-03-11T14:44:37.387Z,676.00
2023-03-11T14:45:37.495Z,676.00
2023-03-11T14:46:37.404Z,676.00
2023-03-11T14:47:37.461Z,680.00
2023-03-11T14:48:37.370Z,676.00
2023-03-11T14:49:37.336Z,696.00
2023-03-11T14:50:37.409Z,712.00
2023-03-11T14:51:37.384Z,728.00
2023-03-11T14:52:37.390Z,728.00
2023-03-11T14:53:37.296Z,728.00
2023-03-11T14:54:37.371Z,744.00
2023-03-11T14:55:37.303Z,740.00
2023-03-11T14:56:37.271Z,728.00
2023-03-11T14:57:37.264Z,736.00
2023-03-11T14:58:37.307Z,712.00
2023-03-11T14:59:37.204Z,728.00
2023-03-11T15:00:37.323Z,724.00
2023-03-11T15:01:37.432Z,744.00
2023-03-11T15:02:37.266Z,728.00
2023-03-11T15:03:37.425Z,716.00
2023-03-11T15:04:37.246Z,724.00
2023-03-11T15:05:37.179Z,676.00
2023-03-11T15:06:37.198Z,676.00
2023-03-11T15:07:37.159Z,672.00
2023-03-11T15:08:37.484Z,680.00
2023-03-11T15:09:37.163Z,656.00
2023-03-11T15:10:37.243Z,648.00
2023-03-11T15:11:37.128Z,628.00
2023-03-11T15:12:37.037Z,616.00
2023-03-11T15:13:37.199Z,596.00
2023-03-11T15:14:37.111Z,564.00
2023-03-11T15:15:37.564Z,560.00
2023-03-11T15:16:37.190Z,572.00
